sensor_id;sensor_type;location;lat;lon;timestamp;P1;durP1;ratioP1;P2;durP2;ratioP2
70337;SDS011;57757;53.198;19.646;2023-09-30T00:01:02;19.40;;;9.90;;
70337;SDS011;57757;53.198;19.646;2023-09-30T00:03:32;17.40;;;9.20;;
70337;SDS011;57757;53.198;19.646;2023-09-30T00:06:01;21.50;;;9.50;;
70337;SDS011;57757;53.198;19.646;2023-09-30T00:08:29;17.80;;;8.70;;
70337;SDS011;57757;53.198;19.646;2023-09-30T00:10:58;16.60;;;9.40;;
70337;SDS011;57757;53.198;19.646;2023-09-30T00:13:25;18.30;;;8.50;;
70337;SDS011;57757;53.198;19.646;2023-09-30T00:15:54;17.70;;;9.10;;
70337;SDS011;57757;53.198;19.646;2023-09-30T00:18:22;17.40;;;8.70;;
70337;SDS011;57757;53.198;19.646;2023-09-30T00:20:50;16.00;;;8.80;;
70337;SDS011;57757;53.198;19.646;2023-09-30T00:23:17;17.90;;;9.30;;
70337;SDS011;57757;53.198;19.646;2023-09-30T00:25:48;16.80;;;9.20;;
70337;SDS011;57757;53.198;19.646;2023-09-30T00:28:17;16.40;;;8.50;;
70337;SDS011;57757;53.198;19.646;2023-09-30T00:30:46;16.60;;;9.50;;
70337;SDS011;57757;53.198;19.646;2023-09-30T00:33:15;16.10;;;9.70;;
70337;SDS011;57757;53.198;19.646;2023-09-30T00:35:43;16.20;;;8.80;;
70337;SDS011;57757;53.198;19.646;2023-09-30T00:38:10;16.10;;;9.30;;
70337;SDS011;57757;53.198;19.646;2023-09-30T00:40:38;17.20;;;9.30;;
70337;SDS011;57757;53.198;19.646;2023-09-30T00:43:06;17.10;;;9.40;;
70337;SDS011;57757;53.198;19.646;2023-09-30T00:45:33;16.00;;;8.80;;
70337;SDS011;57757;53.198;19.646;2023-09-30T00:48:02;16.30;;;8.70;;
70337;SDS011;57757;53.198;19.646;2023-09-30T00:50:30;17.80;;;9.20;;
70337;SDS011;57757;53.198;19.646;2023-09-30T00:52:58;19.20;;;9.30;;
70337;SDS011;57757;53.198;19.646;2023-09-30T00:55:26;17.20;;;8.80;;
70337;SDS011;57757;53.198;19.646;2023-09-30T00:57:53;17.50;;;8.70;;
70337;SDS011;57757;53.198;19.646;2023-09-30T01:00:21;17.10;;;8.70;;
70337;SDS011;57757;53.198;19.646;2023-09-30T01:02:52;15.10;;;8.70;;
70337;SDS011;57757;53.198;19.646;2023-09-30T01:05:24;15.80;;;8.80;;
70337;SDS011;57757;53.198;19.646;2023-09-30T01:07:51;16.10;;;8.30;;
70337;SDS011;57757;53.198;19.646;2023-09-30T01:10:19;16.80;;;9.20;;
70337;SDS011;57757;53.198;19.646;2023-09-30T01:12:47;18.10;;;9.70;;
70337;SDS011;57757;53.198;19.646;2023-09-30T01:15:15;16.20;;;8.80;;
70337;SDS011;57757;53.198;19.646;2023-09-30T01:17:43;18.90;;;8.90;;
70337;SDS011;57757;53.198;19.646;2023-09-30T01:20:10;17.70;;;8.60;;
70337;SDS011;57757;53.198;19.646;2023-09-30T01:22:43;17.60;;;9.30;;
70337;SDS011;57757;53.198;19.646;2023-09-30T01:25:12;15.70;;;8.80;;
70337;SDS011;57757;53.198;19.646;2023-09-30T01:27:40;17.90;;;8.90;;
70337;SDS011;57757;53.198;19.646;2023-09-30T01:30:08;20.10;;;9.20;;
70337;SDS011;57757;53.198;19.646;2023-09-30T01:32:39;16.70;;;8.60;;
70337;SDS011;57757;53.198;19.646;2023-09-30T01:35:07;18.80;;;9.00;;
70337;SDS011;57757;53.198;19.646;2023-09-30T01:37:35;17.00;;;8.90;;
70337;SDS011;57757;53.198;19.646;2023-09-30T01:40:03;16.10;;;8.70;;
70337;SDS011;57757;53.198;19.646;2023-09-30T01:42:32;16.60;;;8.50;;
70337;SDS011;57757;53.198;19.646;2023-09-30T01:45:00;18.80;;;9.50;;
70337;SDS011;57757;53.198;19.646;2023-09-30T01:47:28;19.10;;;8.40;;
70337;SDS011;57757;53.198;19.646;2023-09-30T01:49:55;14.90;;;8.20;;
70337;SDS011;57757;53.198;19.646;2023-09-30T01:52:23;16.50;;;9.00;;
70337;SDS011;57757;53.198;19.646;2023-09-30T01:54:51;15.10;;;8.00;;
70337;SDS011;57757;53.198;19.646;2023-09-30T01:57:19;16.20;;;8.10;;
70337;SDS011;57757;53.198;19.646;2023-09-30T01:59:47;16.30;;;9.30;;
70337;SDS011;57757;53.198;19.646;2023-09-30T02:02:15;16.60;;;8.70;;
70337;SDS011;57757;53.198;19.646;2023-09-30T02:04:43;17.60;;;8.70;;
70337;SDS011;57757;53.198;19.646;2023-09-30T02:07:11;15.80;;;8.50;;
70337;SDS011;57757;53.198;19.646;2023-09-30T02:09:38;15.40;;;8.40;;
70337;SDS011;57757;53.198;19.646;2023-09-30T02:12:06;17.40;;;8.70;;
70337;SDS011;57757;53.198;19.646;2023-09-30T02:14:37;15.40;;;8.60;;
70337;SDS011;57757;53.198;19.646;2023-09-30T02:17:06;17.50;;;8.50;;
70337;SDS011;57757;53.198;19.646;2023-09-30T02:19:33;16.50;;;8.20;;
70337;SDS011;57757;53.198;19.646;2023-09-30T02:22:01;15.90;;;8.10;;
70337;SDS011;57757;53.198;19.646;2023-09-30T02:24:29;17.00;;;8.00;;
70337;SDS011;57757;53.198;19.646;2023-09-30T02:26:57;16.30;;;8.30;;
70337;SDS011;57757;53.198;19.646;2023-09-30T02:29:25;15.60;;;8.10;;
70337;SDS011;57757;53.198;19.646;2023-09-30T02:31:53;16.00;;;8.00;;
70337;SDS011;57757;53.198;19.646;2023-09-30T02:34:22;15.50;;;7.80;;
70337;SDS011;57757;53.198;19.646;2023-09-30T02:36:50;17.70;;;8.40;;
70337;SDS011;57757;53.198;19.646;2023-09-30T02:39:18;17.60;;;8.40;;
70337;SDS011;57757;53.198;19.646;2023-09-30T02:41:47;19.10;;;7.80;;
70337;SDS011;57757;53.198;19.646;2023-09-30T02:44:17;15.40;;;7.80;;
70337;SDS011;57757;53.198;19.646;2023-09-30T02:46:46;17.60;;;8.70;;
70337;SDS011;57757;53.198;19.646;2023-09-30T02:49:14;15.80;;;8.30;;
70337;SDS011;57757;53.198;19.646;2023-09-30T02:51:42;15.40;;;8.30;;
70337;SDS011;57757;53.198;19.646;2023-09-30T02:54:09;14.30;;;8.30;;
70337;SDS011;57757;53.198;19.646;2023-09-30T02:56:37;17.70;;;8.70;;
70337;SDS011;57757;53.198;19.646;2023-09-30T02:59:05;16.20;;;8.60;;
70337;SDS011;57757;53.198;19.646;2023-09-30T03:01:34;16.20;;;8.50;;
70337;SDS011;57757;53.198;19.646;2023-09-30T03:04:02;16.80;;;8.90;;
70337;SDS011;57757;53.198;19.646;2023-09-30T03:06:34;16.00;;;8.20;;
70337;SDS011;57757;53.198;19.646;2023-09-30T03:09:05;15.20;;;8.50;;
70337;SDS011;57757;53.198;19.646;2023-09-30T03:11:33;20.80;;;8.90;;
70337;SDS011;57757;53.198;19.646;2023-09-30T03:14:01;17.00;;;9.20;;
70337;SDS011;57757;53.198;19.646;2023-09-30T03:16:29;16.90;;;8.90;;
70337;SDS011;57757;53.198;19.646;2023-09-30T03:18:58;19.50;;;9.70;;
70337;SDS011;57757;53.198;19.646;2023-09-30T03:21:25;18.10;;;8.80;;
70337;SDS011;57757;53.198;19.646;2023-09-30T03:23:53;15.80;;;8.50;;
70337;SDS011;57757;53.198;19.646;2023-09-30T03:26:21;19.40;;;9.10;;
70337;SDS011;57757;53.198;19.646;2023-09-30T03:28:49;19.90;;;9.20;;
70337;SDS011;57757;53.198;19.646;2023-09-30T03:31:21;18.20;;;9.10;;
70337;SDS011;57757;53.198;19.646;2023-09-30T03:33:50;15.30;;;8.60;;
70337;SDS011;57757;53.198;19.646;2023-09-30T03:36:21;18.90;;;9.40;;
70337;SDS011;57757;53.198;19.646;2023-09-30T03:38:52;16.40;;;9.30;;
70337;SDS011;57757;53.198;19.646;2023-09-30T03:41:26;19.70;;;8.90;;
70337;SDS011;57757;53.198;19.646;2023-09-30T03:43:54;18.70;;;9.50;;
70337;SDS011;57757;53.198;19.646;2023-09-30T03:46:22;17.30;;;9.00;;
70337;SDS011;57757;53.198;19.646;2023-09-30T03:48:50;15.50;;;9.10;;
70337;SDS011;57757;53.198;19.646;2023-09-30T03:51:18;19.50;;;9.60;;
70337;SDS011;57757;53.198;19.646;2023-09-30T03:53:46;18.20;;;9.70;;
70337;SDS011;57757;53.198;19.646;2023-09-30T03:56:14;18.70;;;10.60;;
70337;SDS011;57757;53.198;19.646;2023-09-30T03:58:42;16.00;;;9.00;;
70337;SDS011;57757;53.198;19.646;2023-09-30T04:01:10;19.80;;;10.60;;
70337;SDS011;57757;53.198;19.646;2023-09-30T04:03:39;17.10;;;10.00;;
70337;SDS011;57757;53.198;19.646;2023-09-30T04:06:08;16.70;;;10.00;;
70337;SDS011;57757;53.198;19.646;2023-09-30T04:08:36;19.00;;;11.10;;
70337;SDS011;57757;53.198;19.646;2023-09-30T04:11:04;20.10;;;11.10;;
70337;SDS011;57757;53.198;19.646;2023-09-30T04:13:32;21.10;;;12.90;;
70337;SDS011;57757;53.198;19.646;2023-09-30T04:16:00;18.50;;;10.90;;
70337;SDS011;57757;53.198;19.646;2023-09-30T04:18:28;18.50;;;10.70;;
70337;SDS011;57757;53.198;19.646;2023-09-30T04:20:56;18.10;;;10.30;;
70337;SDS011;57757;53.198;19.646;2023-09-30T04:23:24;17.80;;;10.10;;
70337;SDS011;57757;53.198;19.646;2023-09-30T04:25:52;19.20;;;11.00;;
70337;SDS011;57757;53.198;19.646;2023-09-30T04:28:20;18.00;;;10.40;;
70337;SDS011;57757;53.198;19.646;2023-09-30T04:30:48;20.50;;;10.90;;
70337;SDS011;57757;53.198;19.646;2023-09-30T04:33:16;20.20;;;11.30;;
70337;SDS011;57757;53.198;19.646;2023-09-30T04:35:47;21.50;;;14.00;;
70337;SDS011;57757;53.198;19.646;2023-09-30T04:38:16;23.60;;;12.80;;
70337;SDS011;57757;53.198;19.646;2023-09-30T04:40:43;25.30;;;13.80;;
70337;SDS011;57757;53.198;19.646;2023-09-30T04:43:11;25.50;;;13.40;;
70337;SDS011;57757;53.198;19.646;2023-09-30T04:45:41;23.60;;;14.40;;
70337;SDS011;57757;53.198;19.646;2023-09-30T04:48:09;21.60;;;12.70;;
70337;SDS011;57757;53.198;19.646;2023-09-30T04:50:37;25.20;;;13.20;;
70337;SDS011;57757;53.198;19.646;2023-09-30T04:53:09;21.00;;;12.20;;
70337;SDS011;57757;53.198;19.646;2023-09-30T04:55:36;21.60;;;11.40;;
70337;SDS011;57757;53.198;19.646;2023-09-30T04:58:05;19.20;;;11.50;;
70337;SDS011;57757;53.198;19.646;2023-09-30T05:00:32;19.10;;;12.60;;
70337;SDS011;57757;53.198;19.646;2023-09-30T05:03:02;21.30;;;11.60;;
70337;SDS011;57757;53.198;19.646;2023-09-30T05:05:30;21.70;;;12.00;;
70337;SDS011;57757;53.198;19.646;2023-09-30T05:07:58;25.10;;;12.70;;
70337;SDS011;57757;53.198;19.646;2023-09-30T05:10:25;19.10;;;11.40;;
70337;SDS011;57757;53.198;19.646;2023-09-30T05:12:53;23.50;;;14.00;;
70337;SDS011;57757;53.198;19.646;2023-09-30T05:15:22;31.50;;;16.50;;
70337;SDS011;57757;53.198;19.646;2023-09-30T05:17:50;22.10;;;13.40;;
70337;SDS011;57757;53.198;19.646;2023-09-30T05:20:17;20.20;;;11.70;;
70337;SDS011;57757;53.198;19.646;2023-09-30T05:22:46;19.30;;;11.70;;
70337;SDS011;57757;53.198;19.646;2023-09-30T05:25:14;21.10;;;12.50;;
70337;SDS011;57757;53.198;19.646;2023-09-30T05:27:44;21.90;;;12.70;;
70337;SDS011;57757;53.198;19.646;2023-09-30T05:30:15;21.30;;;12.00;;
70337;SDS011;57757;53.198;19.646;2023-09-30T05:32:44;21.40;;;12.30;;
70337;SDS011;57757;53.198;19.646;2023-09-30T05:35:14;23.50;;;13.60;;
70337;SDS011;57757;53.198;19.646;2023-09-30T05:37:45;21.60;;;12.20;;
70337;SDS011;57757;53.198;19.646;2023-09-30T05:40:13;18.80;;;11.90;;
70337;SDS011;57757;53.198;19.646;2023-09-30T05:42:51;19.40;;;11.40;;
70337;SDS011;57757;53.198;19.646;2023-09-30T05:45:26;21.00;;;11.90;;
70337;SDS011;57757;53.198;19.646;2023-09-30T05:47:55;21.30;;;12.20;;
70337;SDS011;57757;53.198;19.646;2023-09-30T05:50:24;21.90;;;12.20;;
70337;SDS011;57757;53.198;19.646;2023-09-30T05:52:54;21.10;;;11.60;;
70337;SDS011;57757;53.198;19.646;2023-09-30T05:55:23;19.80;;;11.50;;
70337;SDS011;57757;53.198;19.646;2023-09-30T05:57:53;20.50;;;13.00;;
70337;SDS011;57757;53.198;19.646;2023-09-30T06:00:22;23.60;;;12.60;;
70337;SDS011;57757;53.198;19.646;2023-09-30T06:02:57;23.00;;;13.40;;
70337;SDS011;57757;53.198;19.646;2023-09-30T06:05:25;20.20;;;12.20;;
70337;SDS011;57757;53.198;19.646;2023-09-30T06:07:54;20.00;;;12.40;;
70337;SDS011;57757;53.198;19.646;2023-09-30T06:10:22;19.80;;;12.00;;
70337;SDS011;57757;53.198;19.646;2023-09-30T06:12:50;21.80;;;12.40;;
70337;SDS011;57757;53.198;19.646;2023-09-30T06:15:23;21.50;;;12.50;;
70337;SDS011;57757;53.198;19.646;2023-09-30T06:17:56;22.10;;;12.90;;
70337;SDS011;57757;53.198;19.646;2023-09-30T06:20:25;20.80;;;12.60;;
70337;SDS011;57757;53.198;19.646;2023-09-30T06:22:55;22.00;;;12.40;;
70337;SDS011;57757;53.198;19.646;2023-09-30T06:25:23;21.10;;;11.60;;
70337;SDS011;57757;53.198;19.646;2023-09-30T06:27:52;22.10;;;12.70;;
70337;SDS011;57757;53.198;19.646;2023-09-30T06:30:24;19.80;;;11.20;;
70337;SDS011;57757;53.198;19.646;2023-09-30T06:32:59;21.50;;;12.40;;
70337;SDS011;57757;53.198;19.646;2023-09-30T06:35:29;21.90;;;13.50;;
70337;SDS011;57757;53.198;19.646;2023-09-30T06:38:04;22.60;;;14.30;;
70337;SDS011;57757;53.198;19.646;2023-09-30T06:40:34;24.80;;;13.90;;
70337;SDS011;57757;53.198;19.646;2023-09-30T06:43:07;28.80;;;15.60;;
70337;SDS011;57757;53.198;19.646;2023-09-30T06:45:35;33.40;;;24.40;;
70337;SDS011;57757;53.198;19.646;2023-09-30T06:48:10;23.90;;;12.10;;
70337;SDS011;57757;53.198;19.646;2023-09-30T06:50:45;21.00;;;11.10;;
70337;SDS011;57757;53.198;19.646;2023-09-30T06:53:16;21.00;;;10.70;;
70337;SDS011;57757;53.198;19.646;2023-09-30T06:55:44;17.50;;;9.20;;
70337;SDS011;57757;53.198;19.646;2023-09-30T06:58:12;16.90;;;8.40;;
70337;SDS011;57757;53.198;19.646;2023-09-30T07:00:41;17.40;;;8.90;;
70337;SDS011;57757;53.198;19.646;2023-09-30T07:03:09;13.00;;;5.60;;
70337;SDS011;57757;53.198;19.646;2023-09-30T07:05:39;10.20;;;4.70;;
70337;SDS011;57757;53.198;19.646;2023-09-30T07:08:07;9.30;;;4.20;;
70337;SDS011;57757;53.198;19.646;2023-09-30T07:10:35;9.60;;;3.70;;
70337;SDS011;57757;53.198;19.646;2023-09-30T07:13:03;11.10;;;4.20;;
70337;SDS011;57757;53.198;19.646;2023-09-30T07:15:31;11.20;;;4.00;;
70337;SDS011;57757;53.198;19.646;2023-09-30T07:17:58;8.60;;;2.10;;
70337;SDS011;57757;53.198;19.646;2023-09-30T07:20:26;6.40;;;1.90;;
70337;SDS011;57757;53.198;19.646;2023-09-30T07:22:55;7.30;;;1.50;;
70337;SDS011;57757;53.198;19.646;2023-09-30T07:25:42;8.70;;;2.00;;
70337;SDS011;57757;53.198;19.646;2023-09-30T07:28:11;8.20;;;1.90;;
70337;SDS011;57757;53.198;19.646;2023-09-30T07:30:39;8.90;;;1.50;;
70337;SDS011;57757;53.198;19.646;2023-09-30T07:33:08;7.00;;;1.60;;
70337;SDS011;57757;53.198;19.646;2023-09-30T07:35:36;7.70;;;1.60;;
70337;SDS011;57757;53.198;19.646;2023-09-30T07:38:06;8.50;;;1.60;;
70337;SDS011;57757;53.198;19.646;2023-09-30T07:40:34;9.60;;;1.60;;
70337;SDS011;57757;53.198;19.646;2023-09-30T07:43:02;9.80;;;1.70;;
70337;SDS011;57757;53.198;19.646;2023-09-30T07:45:30;8.20;;;1.90;;
70337;SDS011;57757;53.198;19.646;2023-09-30T07:47:57;8.60;;;2.40;;
70337;SDS011;57757;53.198;19.646;2023-09-30T07:50:31;7.60;;;2.60;;
70337;SDS011;57757;53.198;19.646;2023-09-30T07:52:59;10.50;;;2.10;;
70337;SDS011;57757;53.198;19.646;2023-09-30T07:55:28;7.50;;;1.60;;
70337;SDS011;57757;53.198;19.646;2023-09-30T07:57:56;9.30;;;1.50;;
70337;SDS011;57757;53.198;19.646;2023-09-30T08:00:27;9.10;;;2.50;;
70337;SDS011;57757;53.198;19.646;2023-09-30T08:02:55;10.50;;;3.10;;
70337;SDS011;57757;53.198;19.646;2023-09-30T08:05:23;10.40;;;2.70;;
70337;SDS011;57757;53.198;19.646;2023-09-30T08:07:50;10.20;;;2.30;;
70337;SDS011;57757;53.198;19.646;2023-09-30T08:10:18;8.80;;;2.10;;
70337;SDS011;57757;53.198;19.646;2023-09-30T08:12:46;12.10;;;2.20;;
70337;SDS011;57757;53.198;19.646;2023-09-30T08:15:16;8.70;;;1.90;;
70337;SDS011;57757;53.198;19.646;2023-09-30T08:17:44;8.80;;;2.20;;
70337;SDS011;57757;53.198;19.646;2023-09-30T08:20:12;6.80;;;1.80;;
70337;SDS011;57757;53.198;19.646;2023-09-30T08:22:41;8.60;;;2.20;;
70337;SDS011;57757;53.198;19.646;2023-09-30T08:25:09;9.60;;;2.60;;
70337;SDS011;57757;53.198;19.646;2023-09-30T08:27:37;9.70;;;1.80;;
70337;SDS011;57757;53.198;19.646;2023-09-30T08:30:09;9.30;;;2.00;;
70337;SDS011;57757;53.198;19.646;2023-09-30T08:32:37;9.30;;;2.00;;
70337;SDS011;57757;53.198;19.646;2023-09-30T08:35:06;15.60;;;5.10;;
70337;SDS011;57757;53.198;19.646;2023-09-30T08:37:34;15.90;;;5.80;;
70337;SDS011;57757;53.198;19.646;2023-09-30T08:40:02;10.50;;;2.20;;
70337;SDS011;57757;53.198;19.646;2023-09-30T08:42:32;12.90;;;3.40;;
70337;SDS011;57757;53.198;19.646;2023-09-30T08:45:03;9.10;;;1.90;;
70337;SDS011;57757;53.198;19.646;2023-09-30T08:47:34;11.40;;;1.90;;
70337;SDS011;57757;53.198;19.646;2023-09-30T08:50:03;9.80;;;1.80;;
70337;SDS011;57757;53.198;19.646;2023-09-30T08:52:43;9.50;;;2.20;;
70337;SDS011;57757;53.198;19.646;2023-09-30T08:55:11;10.70;;;2.10;;
70337;SDS011;57757;53.198;19.646;2023-09-30T08:57:40;12.70;;;2.10;;
70337;SDS011;57757;53.198;19.646;2023-09-30T09:00:12;9.60;;;2.00;;
70337;SDS011;57757;53.198;19.646;2023-09-30T09:02:42;9.80;;;2.10;;
70337;SDS011;57757;53.198;19.646;2023-09-30T09:05:11;13.50;;;2.20;;
70337;SDS011;57757;53.198;19.646;2023-09-30T09:07:39;9.70;;;2.40;;
70337;SDS011;57757;53.198;19.646;2023-09-30T09:10:08;10.80;;;1.90;;
70337;SDS011;57757;53.198;19.646;2023-09-30T09:12:38;7.70;;;1.80;;
70337;SDS011;57757;53.198;19.646;2023-09-30T09:15:28;10.00;;;2.90;;
70337;SDS011;57757;53.198;19.646;2023-09-30T09:17:59;9.00;;;2.00;;
70337;SDS011;57757;53.198;19.646;2023-09-30T09:20:27;8.20;;;2.10;;
70337;SDS011;57757;53.198;19.646;2023-09-30T09:22:55;11.80;;;2.90;;
70337;SDS011;57757;53.198;19.646;2023-09-30T09:25:25;9.50;;;2.70;;
70337;SDS011;57757;53.198;19.646;2023-09-30T09:27:54;11.50;;;3.10;;
70337;SDS011;57757;53.198;19.646;2023-09-30T09:30:23;10.50;;;3.40;;
70337;SDS011;57757;53.198;19.646;2023-09-30T09:32:53;10.30;;;3.30;;
70337;SDS011;57757;53.198;19.646;2023-09-30T09:35:33;14.30;;;4.60;;
70337;SDS011;57757;53.198;19.646;2023-09-30T09:38:03;21.00;;;7.00;;
70337;SDS011;57757;53.198;19.646;2023-09-30T09:40:36;16.70;;;5.70;;
70337;SDS011;57757;53.198;19.646;2023-09-30T09:43:08;11.30;;;3.90;;
70337;SDS011;57757;53.198;19.646;2023-09-30T09:45:37;12.30;;;4.10;;
70337;SDS011;57757;53.198;19.646;2023-09-30T09:48:05;11.70;;;4.70;;
70337;SDS011;57757;53.198;19.646;2023-09-30T09:50:34;14.80;;;3.90;;
70337;SDS011;57757;53.198;19.646;2023-09-30T09:53:06;9.90;;;3.30;;
70337;SDS011;57757;53.198;19.646;2023-09-30T09:55:36;12.50;;;3.60;;
70337;SDS011;57757;53.198;19.646;2023-09-30T09:58:06;12.70;;;4.30;;
70337;SDS011;57757;53.198;19.646;2023-09-30T10:00:35;28.00;;;10.30;;
70337;SDS011;57757;53.198;19.646;2023-09-30T10:03:04;17.30;;;8.20;;
70337;SDS011;57757;53.198;19.646;2023-09-30T10:05:32;20.90;;;10.90;;
70337;SDS011;57757;53.198;19.646;2023-09-30T10:08:01;11.80;;;3.70;;
70337;SDS011;57757;53.198;19.646;2023-09-30T10:10:36;19.50;;;8.80;;
70337;SDS011;57757;53.198;19.646;2023-09-30T10:13:05;17.80;;;5.00;;
70337;SDS011;57757;53.198;19.646;2023-09-30T10:15:34;11.00;;;3.10;;
70337;SDS011;57757;53.198;19.646;2023-09-30T10:18:04;16.60;;;7.70;;
70337;SDS011;57757;53.198;19.646;2023-09-30T10:20:42;14.40;;;5.70;;
70337;SDS011;57757;53.198;19.646;2023-09-30T10:28:46;10.40;;;2.00;;
70337;SDS011;57757;53.198;19.646;2023-09-30T10:31:18;8.60;;;2.50;;
70337;SDS011;57757;53.198;19.646;2023-09-30T10:36:33;8.30;;;2.40;;
70337;SDS011;57757;53.198;19.646;2023-09-30T10:39:03;10.70;;;2.80;;
70337;SDS011;57757;53.198;19.646;2023-09-30T10:47:57;9.90;;;3.30;;
70337;SDS011;57757;53.198;19.646;2023-09-30T10:50:14;10.70;;;2.80;;
70337;SDS011;57757;53.198;19.646;2023-09-30T10:53:08;11.00;;;3.20;;
70337;SDS011;57757;53.198;19.646;2023-09-30T10:55:37;9.60;;;2.40;;
70337;SDS011;57757;53.198;19.646;2023-09-30T10:58:05;13.10;;;2.70;;
70337;SDS011;57757;53.198;19.646;2023-09-30T11:00:33;10.10;;;2.30;;
70337;SDS011;57757;53.198;19.646;2023-09-30T11:03:00;9.10;;;2.60;;
70337;SDS011;57757;53.198;19.646;2023-09-30T11:05:30;11.80;;;2.60;;
70337;SDS011;57757;53.198;19.646;2023-09-30T11:08:17;13.50;;;2.50;;
70337;SDS011;57757;53.198;19.646;2023-09-30T11:10:53;9.00;;;2.00;;
70337;SDS011;57757;53.198;19.646;2023-09-30T11:13:21;8.20;;;1.90;;
70337;SDS011;57757;53.198;19.646;2023-09-30T11:15:59;7.90;;;2.10;;
70337;SDS011;57757;53.198;19.646;2023-09-30T11:18:32;9.20;;;2.30;;
70337;SDS011;57757;53.198;19.646;2023-09-30T11:21:07;10.10;;;2.50;;
70337;SDS011;57757;53.198;19.646;2023-09-30T11:23:37;10.60;;;2.10;;
70337;SDS011;57757;53.198;19.646;2023-09-30T11:26:05;10.30;;;2.30;;
70337;SDS011;57757;53.198;19.646;2023-09-30T11:28:37;11.10;;;2.40;;
70337;SDS011;57757;53.198;19.646;2023-09-30T11:31:09;8.10;;;2.10;;
70337;SDS011;57757;53.198;19.646;2023-09-30T11:33:52;10.20;;;2.50;;
70337;SDS011;57757;53.198;19.646;2023-09-30T11:36:21;8.20;;;2.10;;
70337;SDS011;57757;53.198;19.646;2023-09-30T11:38:50;8.70;;;2.50;;
70337;SDS011;57757;53.198;19.646;2023-09-30T11:41:22;8.20;;;2.00;;
70337;SDS011;57757;53.198;19.646;2023-09-30T11:51:56;8.30;;;2.10;;
70337;SDS011;57757;53.198;19.646;2023-09-30T11:54:33;10.60;;;2.30;;
70337;SDS011;57757;53.198;19.646;2023-09-30T11:57:07;9.70;;;2.30;;
70337;SDS011;57757;53.198;19.646;2023-09-30T11:59:38;8.30;;;2.30;;
70337;SDS011;57757;53.198;19.646;2023-09-30T12:02:09;9.20;;;2.30;;
70337;SDS011;57757;53.198;19.646;2023-09-30T12:04:42;8.20;;;2.10;;
70337;SDS011;57757;53.198;19.646;2023-09-30T12:07:11;9.10;;;2.50;;
70337;SDS011;57757;53.198;19.646;2023-09-30T12:09:40;9.70;;;3.10;;
70337;SDS011;57757;53.198;19.646;2023-09-30T12:12:09;12.40;;;3.80;;
70337;SDS011;57757;53.198;19.646;2023-09-30T12:14:38;10.60;;;2.60;;
70337;SDS011;57757;53.198;19.646;2023-09-30T12:17:06;9.20;;;3.10;;
70337;SDS011;57757;53.198;19.646;2023-09-30T12:19:40;8.90;;;2.50;;
70337;SDS011;57757;53.198;19.646;2023-09-30T12:22:09;10.10;;;2.90;;
70337;SDS011;57757;53.198;19.646;2023-09-30T12:24:38;10.20;;;2.50;;
70337;SDS011;57757;53.198;19.646;2023-09-30T12:27:07;8.70;;;2.10;;
70337;SDS011;57757;53.198;19.646;2023-09-30T12:29:35;9.10;;;2.30;;
70337;SDS011;57757;53.198;19.646;2023-09-30T12:32:06;12.30;;;2.50;;
70337;SDS011;57757;53.198;19.646;2023-09-30T12:34:34;8.90;;;2.30;;
70337;SDS011;57757;53.198;19.646;2023-09-30T12:37:03;8.90;;;2.20;;
70337;SDS011;57757;53.198;19.646;2023-09-30T12:39:31;10.50;;;2.80;;
70337;SDS011;57757;53.198;19.646;2023-09-30T12:42:01;11.80;;;2.60;;
70337;SDS011;57757;53.198;19.646;2023-09-30T12:44:28;11.40;;;3.40;;
70337;SDS011;57757;53.198;19.646;2023-09-30T12:46:56;10.80;;;3.80;;
70337;SDS011;57757;53.198;19.646;2023-09-30T12:49:24;8.60;;;2.30;;
70337;SDS011;57757;53.198;19.646;2023-09-30T12:51:52;9.90;;;2.80;;
70337;SDS011;57757;53.198;19.646;2023-09-30T12:54:19;12.50;;;2.60;;
70337;SDS011;57757;53.198;19.646;2023-09-30T12:56:47;9.70;;;2.80;;
70337;SDS011;57757;53.198;19.646;2023-09-30T12:59:16;12.00;;;2.90;;
70337;SDS011;57757;53.198;19.646;2023-09-30T13:01:45;10.20;;;2.50;;
70337;SDS011;57757;53.198;19.646;2023-09-30T13:04:13;9.80;;;2.50;;
70337;SDS011;57757;53.198;19.646;2023-09-30T13:06:42;13.80;;;3.00;;
70337;SDS011;57757;53.198;19.646;2023-09-30T13:09:10;17.00;;;3.20;;
70337;SDS011;57757;53.198;19.646;2023-09-30T13:11:39;9.80;;;2.80;;
70337;SDS011;57757;53.198;19.646;2023-09-30T13:14:07;10.90;;;3.20;;
70337;SDS011;57757;53.198;19.646;2023-09-30T13:16:34;8.90;;;2.50;;
70337;SDS011;57757;53.198;19.646;2023-09-30T13:19:02;13.50;;;3.00;;
70337;SDS011;57757;53.198;19.646;2023-09-30T13:21:30;8.90;;;2.50;;
70337;SDS011;57757;53.198;19.646;2023-09-30T13:23:58;11.70;;;3.10;;
70337;SDS011;57757;53.198;19.646;2023-09-30T13:26:25;10.50;;;2.90;;
70337;SDS011;57757;53.198;19.646;2023-09-30T13:28:53;10.10;;;2.60;;
70337;SDS011;57757;53.198;19.646;2023-09-30T13:31:21;11.10;;;2.60;;
70337;SDS011;57757;53.198;19.646;2023-09-30T13:33:49;9.20;;;2.70;;
70337;SDS011;57757;53.198;19.646;2023-09-30T13:36:16;10.10;;;2.40;;
70337;SDS011;57757;53.198;19.646;2023-09-30T13:38:44;8.90;;;2.40;;
70337;SDS011;57757;53.198;19.646;2023-09-30T13:41:13;11.20;;;2.70;;
70337;SDS011;57757;53.198;19.646;2023-09-30T13:43:41;10.20;;;3.00;;
70337;SDS011;57757;53.198;19.646;2023-09-30T13:46:09;9.10;;;2.60;;
70337;SDS011;57757;53.198;19.646;2023-09-30T13:48:36;10.80;;;2.80;;
70337;SDS011;57757;53.198;19.646;2023-09-30T13:51:07;11.50;;;3.40;;
70337;SDS011;57757;53.198;19.646;2023-09-30T13:53:36;11.30;;;3.00;;
70337;SDS011;57757;53.198;19.646;2023-09-30T13:56:04;10.00;;;2.80;;
70337;SDS011;57757;53.198;19.646;2023-09-30T13:58:34;8.70;;;2.70;;
70337;SDS011;57757;53.198;19.646;2023-09-30T14:01:02;12.20;;;3.30;;
70337;SDS011;57757;53.198;19.646;2023-09-30T14:03:30;9.20;;;2.90;;
70337;SDS011;57757;53.198;19.646;2023-09-30T14:05:58;12.20;;;3.30;;
70337;SDS011;57757;53.198;19.646;2023-09-30T14:08:26;31.10;;;7.60;;
70337;SDS011;57757;53.198;19.646;2023-09-30T14:10:54;20.20;;;5.60;;
70337;SDS011;57757;53.198;19.646;2023-09-30T14:13:22;20.40;;;5.30;;
70337;SDS011;57757;53.198;19.646;2023-09-30T14:15:50;13.90;;;3.90;;
70337;SDS011;57757;53.198;19.646;2023-09-30T14:18:20;18.30;;;5.50;;
70337;SDS011;57757;53.198;19.646;2023-09-30T14:20:47;17.10;;;6.10;;
70337;SDS011;57757;53.198;19.646;2023-09-30T14:23:15;17.90;;;5.30;;
70337;SDS011;57757;53.198;19.646;2023-09-30T14:25:43;11.20;;;4.10;;
70337;SDS011;57757;53.198;19.646;2023-09-30T14:28:10;13.00;;;4.60;;
70337;SDS011;57757;53.198;19.646;2023-09-30T14:30:38;12.90;;;3.80;;
70337;SDS011;57757;53.198;19.646;2023-09-30T14:33:06;14.80;;;4.50;;
70337;SDS011;57757;53.198;19.646;2023-09-30T14:35:34;16.60;;;5.20;;
70337;SDS011;57757;53.198;19.646;2023-09-30T14:38:04;13.80;;;3.70;;
70337;SDS011;57757;53.198;19.646;2023-09-30T14:40:36;13.00;;;3.60;;
70337;SDS011;57757;53.198;19.646;2023-09-30T14:43:07;17.00;;;5.90;;
70337;SDS011;57757;53.198;19.646;2023-09-30T14:45:38;10.40;;;3.20;;
70337;SDS011;57757;53.198;19.646;2023-09-30T14:48:07;10.40;;;2.90;;
70337;SDS011;57757;53.198;19.646;2023-09-30T14:53:24;12.40;;;3.70;;
70337;SDS011;57757;53.198;19.646;2023-09-30T14:55:52;15.10;;;4.70;;
70337;SDS011;57757;53.198;19.646;2023-09-30T14:58:19;17.10;;;6.10;;